Kenney, Illinois
Current Conditions -  °F | °C
As of 11:55 AM on Thursday 30 Oct 2014 (Local Time) from KAAA Reporting Station
Overcast Overcast  
Wind Chill: 52°   Ceiling: 11000
Heat Index: 52°   Visibility: 10mi
Dew Point: 38°   Wind: 9mph
Humidity: 60%   Direction: 180°S
Pressure: 30.11"   Gusts: NA
Location:  40.1°N, 89.09°W
Report Text: KAAA 301655Z AUTO 18008KT 10SM SCT070 OVC110 11/04 A3011 RMK AO2 T01090035
Loading
Personal Weather Stations






























Interactive Weather Map New forecast layout! Learn more

10-Day Weather Forecast

Advertisements
Track Severe Weather on mobile